Time;durP1;ratioP1;P1;durP2;ratioP2;P2;SDS_P1;SDS_P2;PMS_P1;PMS_P2;Temp;Humidity;BMP_temperature;BMP_pressure;BME280_temperature;BME280_humidity;BME280_pressure;Samples;Min_cycle;Max_cycle;Signal;HPM_P1;HPM_P2
2023/03/19 00:01:12;;;;;;;;;;;;;;;20.08;45.73;100849.81;4941585;28;4267;-63
2023/03/19 00:03:38;;;;;;;;;;;;;;;20.08;45.74;100852.69;4941901;28;4513;-64
2023/03/19 00:06:05;;;;;;;;;;;;;;;20.07;45.68;100845.47;4944229;28;4218;-64
2023/03/19 00:08:31;;;;;;;;;;;;;;;20.08;45.75;100840.47;4944496;28;5374;-63
2023/03/19 00:10:58;;;;;;;;;;;;;;;20.06;45.69;100841.09;4941365;28;4918;-64
2023/03/19 00:13:24;;;;;;;;;;;;;;;20.07;45.75;100833.97;4944285;28;4144;-64
2023/03/19 00:15:50;;;;;;;;;;;;;;;20.07;45.67;100842.59;4941577;28;5339;-63
2023/03/19 00:18:17;;;;;;;;;;;;;;;20.06;45.66;100843.25;4946854;28;4152;-64
2023/03/19 00:20:43;;;;;;;;;;;;;;;20.05;45.72;100842.50;4944436;28;4144;-63
2023/03/19 00:23:10;;;;;;;;;;;;;;;20.05;45.68;100836.00;4942986;28;4388;-64
2023/03/19 00:25:36;;;;;;;;;;;;;;;20.04;45.71;100846.78;4937008;29;4044;-63
2023/03/19 00:28:02;;;;;;;;;;;;;;;20.04;45.74;100843.13;4941949;29;4032;-64
2023/03/19 00:30:29;;;;;;;;;;;;;;;20.04;45.70;100841.03;4944537;28;4070;-64
2023/03/19 00:32:56;;;;;;;;;;;;;;;20.04;45.78;100840.25;4922362;28;4330;-64
2023/03/19 00:35:29;;;;;;;;;;;;;;;20.02;45.65;100835.19;4919221;29;5222;-64
2023/03/19 00:37:55;;;;;;;;;;;;;;;20.02;45.82;100840.16;4940051;28;4173;-65
2023/03/19 00:40:22;;;;;;;;;;;;;;;20.04;45.67;100841.03;4934549;28;4209;-64
2023/03/19 00:42:48;;;;;;;;;;;;;;;20.05;45.54;100842.50;4943240;28;6380;-64
2023/03/19 00:45:15;;;;;;;;;;;;;;;20.04;45.36;100838.16;4937668;28;4224;-64
2023/03/19 00:47:42;;;;;;;;;;;;;;;20.04;45.37;100834.50;4941197;28;5251;-65
2023/03/19 00:50:11;;;;;;;;;;;;;;;20.04;45.59;100843.13;4920873;29;4253;-63
2023/03/19 00:52:37;;;;;;;;;;;;;;;20.02;45.70;100854.53;4944765;29;4150;-64
2023/03/19 00:55:04;;;;;;;;;;;;;;;20.01;45.74;100853.81;4943515;28;4193;-64
2023/03/19 00:57:30;;;;;;;;;;;;;;;20.00;45.73;100845.84;4936732;28;3937;-64
2023/03/19 00:59:57;;;;;;;;;;;;;;;20.00;45.82;100846.56;4943825;28;4861;-64
2023/03/19 01:02:25;;;;;;;;;;;;;;;19.99;45.84;100845.06;4944163;28;4173;-64
2023/03/19 01:04:52;;;;;;;;;;;;;;;19.98;45.75;100849.34;4922104;28;5489;-64
2023/03/19 01:07:18;;;;;;;;;;;;;;;19.99;45.71;100853.69;4921942;29;4414;-64
2023/03/19 01:09:45;;;;;;;;;;;;;;;19.97;45.76;100856.47;4943169;28;4130;-64
2023/03/19 01:12:11;;;;;;;;;;;;;;;19.98;45.90;100855.09;4938186;28;4385;-64
2023/03/19 01:14:38;;;;;;;;;;;;;;;19.97;45.86;100850.72;4922750;28;4169;-64
2023/03/19 01:17:05;;;;;;;;;;;;;;;19.97;45.80;100850.00;4910423;28;4152;-64
2023/03/19 01:19:32;;;;;;;;;;;;;;;19.97;45.87;100847.84;4939348;28;4037;-64
2023/03/19 01:21:58;;;;;;;;;;;;;;;19.97;45.80;100864.34;4941283;28;4164;-65
2023/03/19 01:24:27;;;;;;;;;;;;;;;19.97;45.80;100842.09;4941693;28;4027;-64
2023/03/19 01:26:54;;;;;;;;;;;;;;;19.98;45.71;100854.38;4936698;28;4123;-64
2023/03/19 01:29:40;;;;;;;;;;;;;;;19.95;45.74;100853.53;4939537;28;4202;-64
2023/03/19 01:32:11;;;;;;;;;;;;;;;19.95;45.93;100849.88;4942627;28;6476;-64
2023/03/19 01:35:04;;;;;;;;;;;;;;;19.95;45.77;100856.41;4920865;28;4158;-64
2023/03/19 01:37:39;;;;;;;;;;;;;;;19.94;45.82;100860.66;4921176;29;4203;-64
2023/03/19 01:40:07;;;;;;;;;;;;;;;19.94;45.82;100854.91;4907170;29;4099;-64
2023/03/19 01:42:34;;;;;;;;;;;;;;;19.92;45.82;100851.94;4937914;28;5319;-64
2023/03/19 01:45:36;;;;;;;;;;;;;;;19.93;45.75;100853.44;4922792;28;3979;-64
2023/03/19 01:48:26;;;;;;;;;;;;;;;19.92;45.77;100863.41;4913778;28;4113;-64
2023/03/19 01:51:00;;;;;;;;;;;;;;;19.93;45.75;100859.16;4904916;29;4553;-64
2023/03/19 01:53:52;;;;;;;;;;;;;;;19.92;45.75;100862.69;4943765;28;4194;-64
2023/03/19 01:56:36;;;;;;;;;;;;;;;19.92;45.77;100865.56;4922931;28;4226;-64
2023/03/19 01:59:10;;;;;;;;;;;;;;;19.91;45.82;100855.47;4937003;28;4275;-64
2023/03/19 02:02:02;;;;;;;;;;;;;;;19.90;45.72;100860.44;4931348;28;4149;-64
2023/03/19 02:04:28;;;;;;;;;;;;;;;19.89;45.75;100844.59;4904287;28;4238;-64
2023/03/19 02:06:55;;;;;;;;;;;;;;;19.89;45.71;100844.59;4921657;29;4129;-64
2023/03/19 02:09:21;;;;;;;;;;;;;;;19.89;45.62;100833.09;4920173;28;4160;-64
2023/03/19 02:11:48;;;;;;;;;;;;;;;19.89;45.68;100850.34;4926799;29;4242;-64
2023/03/19 02:14:14;;;;;;;;;;;;;;;19.88;45.75;100840.22;4906011;29;4086;-64
2023/03/19 02:16:41;;;;;;;;;;;;;;;19.87;45.67;100836.63;4919335;28;4384;-64
2023/03/19 02:19:08;;;;;;;;;;;;;;;19.87;45.67;100836.63;4937567;29;4058;-64
2023/03/19 02:21:34;;;;;;;;;;;;;;;19.87;45.65;100838.75;4916992;29;4317;-64
2023/03/19 02:24:00;;;;;;;;;;;;;;;19.87;45.71;100835.88;4910031;29;4244;-64
2023/03/19 02:26:46;;;;;;;;;;;;;;;19.86;45.69;100834.41;4922593;28;4503;-64
2023/03/19 02:29:13;;;;;;;;;;;;;;;19.86;45.61;100837.28;4900967;29;4247;-64
2023/03/19 02:31:39;;;;;;;;;;;;;;;19.86;45.55;100846.63;4931529;28;4182;-64
2023/03/19 02:34:26;;;;;;;;;;;;;;;19.85;45.67;100841.53;4937151;28;4112;-64
2023/03/19 02:36:53;;;;;;;;;;;;;;;19.85;45.55;100832.91;4933801;28;5352;-65
2023/03/19 02:39:21;;;;;;;;;;;;;;;19.84;45.59;100829.31;4926014;28;5323;-64
2023/03/19 02:41:48;;;;;;;;;;;;;;;19.85;45.60;100835.78;4937778;28;4161;-64
2023/03/19 02:44:18;;;;;;;;;;;;;;;19.83;45.63;100835.69;4916466;29;4120;-64
2023/03/19 02:46:46;;;;;;;;;;;;;;;19.84;45.59;100840.06;4940744;28;4178;-64
2023/03/19 02:49:14;;;;;;;;;;;;;;;19.83;45.58;100829.94;4939166;28;4390;-64
2023/03/19 02:51:40;;;;;;;;;;;;;;;19.83;45.53;100829.94;4944294;28;4114;-64
2023/03/19 02:54:07;;;;;;;;;;;;;;;19.82;45.53;100831.34;4915612;28;5409;-64
2023/03/19 02:56:33;;;;;;;;;;;;;;;19.82;45.62;100837.81;4941432;28;4032;-64
2023/03/19 02:59:00;;;;;;;;;;;;;;;19.82;45.56;100825.59;4942615;28;4136;-64
2023/03/19 03:01:27;;;;;;;;;;;;;;;19.81;45.49;100830.59;4947995;28;4240;-64
2023/03/19 03:03:53;;;;;;;;;;;;;;;19.81;45.45;100824.09;4942292;28;4092;-64
2023/03/19 03:06:21;;;;;;;;;;;;;;;19.81;45.49;100841.31;4941763;28;4099;-64
2023/03/19 03:08:47;;;;;;;;;;;;;;;19.81;45.54;100858.56;4935755;28;4292;-64
2023/03/19 03:11:13;;;;;;;;;;;;;;;19.80;45.52;100857.09;4942337;28;4216;-64
2023/03/19 03:13:40;;;;;;;;;;;;;;;19.80;45.58;100860.72;4947044;28;4151;-64
2023/03/19 03:16:06;;;;;;;;;;;;;;;19.81;45.54;100875.81;4959443;28;4086;-64
2023/03/19 03:18:33;;;;;;;;;;;;;;;19.80;45.45;100891.56;4963176;28;4161;-64
2023/03/19 03:21:00;;;;;;;;;;;;;;;19.78;45.52;100877.09;4924869;28;4130;-64
2023/03/19 03:23:26;;;;;;;;;;;;;;;19.78;45.44;100888.59;4959570;28;4153;-64
2023/03/19 03:25:52;;;;;;;;;;;;;;;19.78;45.69;100900.09;4957339;28;4142;-64
2023/03/19 03:28:19;;;;;;;;;;;;;;;19.77;45.53;100885.00;4961696;28;4248;-64
2023/03/19 03:30:45;;;;;;;;;;;;;;;19.77;45.57;100889.97;4940718;28;4108;-64
2023/03/19 03:33:12;;;;;;;;;;;;;;;19.77;45.48;100895.72;4926898;28;4145;-64
2023/03/19 03:35:39;;;;;;;;;;;;;;;19.79;45.47;100892.94;4959466;28;4071;-64
2023/03/19 03:38:05;;;;;;;;;;;;;;;19.80;45.41;100903.06;4942171;28;4344;-65
2023/03/19 03:40:33;;;;;;;;;;;;;;;19.83;45.21;100896.03;4960122;28;4157;-64
2023/03/19 03:43:00;;;;;;;;;;;;;;;19.84;45.07;100883.16;4957413;28;5229;-64
2023/03/19 03:45:27;;;;;;;;;;;;;;;19.87;44.97;100896.22;4942960;28;5313;-64
2023/03/19 03:47:53;;;;;;;;;;;;;;;19.89;44.87;100887.72;4959480;28;5425;-64
2023/03/19 03:50:19;;;;;;;;;;;;;;;19.90;44.80;100889.19;4941584;28;4263;-64
2023/03/19 03:52:48;;;;;;;;;;;;;;;19.92;44.88;100897.91;4917733;28;4244;-64
2023/03/19 03:55:15;;;;;;;;;;;;;;;19.92;45.15;100897.91;4941586;28;4273;-64
2023/03/19 03:57:41;;;;;;;;;;;;;;;19.92;45.37;100897.91;4951340;28;4169;-66
2023/03/19 04:00:08;;;;;;;;;;;;;;;19.93;45.77;100896.53;4938733;28;6473;-64
2023/03/19 04:02:41;;;;;;;;;;;;;;;19.93;45.42;100910.91;4935155;28;5271;-65
2023/03/19 04:05:12;;;;;;;;;;;;;;;19.93;45.18;100910.91;4937669;28;4212;-64
2023/03/19 04:07:38;;;;;;;;;;;;;;;19.94;45.16;100918.13;4934982;28;4200;-64
2023/03/19 04:10:05;;;;;;;;;;;;;;;19.95;45.42;100910.25;4957390;28;4116;-64
2023/03/19 04:12:31;;;;;;;;;;;;;;;19.95;45.43;100913.88;4941181;28;4181;-64
2023/03/19 04:14:58;;;;;;;;;;;;;;;19.97;45.40;100916.84;4936792;28;5377;-64
2023/03/19 04:17:24;;;;;;;;;;;;;;;19.98;45.19;100918.34;4934475;29;4163;-64
2023/03/19 04:19:51;;;;;;;;;;;;;;;19.99;45.52;100924.81;4946106;28;4108;-64
2023/03/19 04:22:17;;;;;;;;;;;;;;;19.99;45.58;100928.44;4940071;28;4178;-64
2023/03/19 04:24:44;;;;;;;;;;;;;;;20.01;46.03;100933.53;4921664;28;4165;-64
2023/03/19 04:27:10;;;;;;;;;;;;;;;20.00;45.82;100938.56;4943042;28;4106;-64
2023/03/19 04:29:37;;;;;;;;;;;;;;;20.00;45.80;100950.06;4942802;28;5281;-64
2023/03/19 04:32:04;;;;;;;;;;;;;;;20.00;45.96;100955.81;4932799;28;4888;-65
2023/03/19 04:34:30;;;;;;;;;;;;;;;20.00;45.77;100950.06;4940481;28;4034;-64
2023/03/19 04:36:57;;;;;;;;;;;;;;;20.00;45.47;100950.06;4938589;28;4141;-64
2023/03/19 04:39:24;;;;;;;;;;;;;;;19.99;45.44;100942.81;4941029;28;5375;-64
2023/03/19 04:41:50;;;;;;;;;;;;;;;20.00;45.44;100938.56;4919915;28;4272;-64
2023/03/19 04:44:23;;;;;;;;;;;;;;;20.01;45.60;100939.28;4921721;29;4069;-64
2023/03/19 04:46:51;;;;;;;;;;;;;;;20.02;45.66;100938.66;4938333;28;4558;-64
2023/03/19 04:49:19;;;;;;;;;;;;;;;20.04;45.59;100935.88;4938889;29;3976;-64
2023/03/19 04:51:46;;;;;;;;;;;;;;;20.04;45.90;100933.00;4919745;28;5397;-65
2023/03/19 04:54:13;;;;;;;;;;;;;;;20.05;45.98;100919.38;4925534;29;4208;-64
2023/03/19 04:56:40;;;;;;;;;;;;;;;20.05;45.79;100911.50;4938185;29;4155;-64
2023/03/19 04:59:07;;;;;;;;;;;;;;;20.06;45.79;100897.84;4923578;29;4130;-64
2023/03/19 05:01:33;;;;;;;;;;;;;;;20.05;45.98;100896.38;4931314;29;4271;-64
2023/03/19 05:04:04;;;;;;;;;;;;;;;20.05;45.89;100899.25;4915947;28;5206;-65
2023/03/19 05:06:33;;;;;;;;;;;;;;;20.05;45.77;100888.50;4932368;29;4292;-65
2023/03/19 05:08:59;;;;;;;;;;;;;;;20.05;45.84;100893.50;4933171;29;5293;-64
2023/03/19 05:11:25;;;;;;;;;;;;;;;20.05;45.70;100887.75;4942983;28;4143;-64
2023/03/19 05:14:04;;;;;;;;;;;;;;;20.04;46.03;100887.03;4936982;28;4010;-64
2023/03/19 05:16:43;;;;;;;;;;;;;;;20.05;45.68;100885.63;4938551;28;4093;-65
2023/03/19 05:19:10;;;;;;;;;;;;;;;20.05;45.75;100894.25;4935761;28;5393;-64
2023/03/19 05:21:36;;;;;;;;;;;;;;;20.07;45.58;100888.59;4930186;28;4186;-65
2023/03/19 05:24:03;;;;;;;;;;;;;;;20.08;45.64;100877.84;4936127;29;4133;-64
2023/03/19 05:26:33;;;;;;;;;;;;;;;20.09;45.75;100882.22;4916030;29;4018;-64
2023/03/19 05:29:22;;;;;;;;;;;;;;;20.09;45.73;100876.47;4917728;29;4160;-64
2023/03/19 05:32:09;;;;;;;;;;;;;;;20.11;45.98;100875.78;4947594;28;4143;-64
2023/03/19 05:34:36;;;;;;;;;;;;;;;20.09;46.06;100865.69;4933788;29;4053;-64
2023/03/19 05:37:02;;;;;;;;;;;;;;;20.11;45.92;100861.41;4945898;28;4198;-64
2023/03/19 05:39:29;;;;;;;;;;;;;;;20.11;45.75;100861.41;4922693;29;4275;-64
2023/03/19 05:42:00;;;;;;;;;;;;;;;20.09;45.96;100868.56;4922305;29;5430;-64
2023/03/19 05:44:28;;;;;;;;;;;;;;;20.09;45.60;100862.81;4921789;29;4108;-64
2023/03/19 05:47:14;;;;;;;;;;;;;;;20.09;46.02;100862.09;4928731;29;4164;-64
2023/03/19 05:49:46;;;;;;;;;;;;;;;20.11;45.79;100858.53;4922113;28;4225;-64
2023/03/19 05:52:12;;;;;;;;;;;;;;;20.09;45.87;100859.94;4919807;28;5458;-64
2023/03/19 05:54:40;;;;;;;;;;;;;;;20.09;46.04;100864.97;4943028;28;4031;-64
2023/03/19 05:57:28;;;;;;;;;;;;;;;20.11;45.85;100862.16;4912589;29;4204;-65
2023/03/19 06:00:01;;;;;;;;;;;;;;;20.12;45.72;100874.41;4939645;28;4141;-64
2023/03/19 06:02:33;;;;;;;;;;;;;;;20.14;46.02;100874.50;4941365;28;4240;-64
2023/03/19 06:05:19;;;;;;;;;;;;;;;20.14;45.85;100871.66;4918632;29;4202;-64
2023/03/19 06:07:45;;;;;;;;;;;;;;;20.14;45.93;100871.66;4920538;28;4350;-64
2023/03/19 06:10:26;;;;;;;;;;;;;;;20.14;46.31;100883.16;4933670;28;4441;-64
2023/03/19 06:12:54;;;;;;;;;;;;;;;20.14;45.98;100891.75;4919017;29;4745;-65
2023/03/19 06:15:46;;;;;;;;;;;;;;;20.14;45.87;100914.75;4918994;29;4502;-65
2023/03/19 06:18:22;;;;;;;;;;;;;;;20.14;45.84;100946.41;4938598;28;4194;-64
2023/03/19 06:20:49;;;;;;;;;;;;;;;20.14;46.21;100970.13;4915354;28;4190;-64
2023/03/19 06:23:16;;;;;;;;;;;;;;;20.13;46.02;100965.00;4936004;28;4237;-64
2023/03/19 06:25:42;;;;;;;;;;;;;;;20.13;46.13;100947.75;4921698;28;4177;-65
2023/03/19 06:28:09;;;;;;;;;;;;;;;20.13;45.86;100945.63;4930167;28;4222;-64
2023/03/19 06:30:38;;;;;;;;;;;;;;;20.14;45.84;100932.00;4942705;28;5379;-64
2023/03/19 06:33:26;;;;;;;;;;;;;;;20.15;45.88;100925.59;4937826;28;5487;-65
2023/03/19 06:35:53;;;;;;;;;;;;;;;20.15;46.00;100914.09;4930293;28;5253;-65
2023/03/19 06:38:20;;;;;;;;;;;;;;;20.17;46.05;100927.84;4929053;29;4253;-65
2023/03/19 06:40:47;;;;;;;;;;;;;;;20.19;46.19;101005.56;4939824;28;4748;-65
2023/03/19 06:43:13;;;;;;;;;;;;;;;20.19;46.14;101017.06;4939904;28;4037;-65
2023/03/19 06:45:40;;;;;;;;;;;;;;;20.18;46.30;101007.72;4938224;28;4275;-65
2023/03/19 06:48:06;;;;;;;;;;;;;;;20.18;46.13;101027.06;4916790;28;5642;-65
2023/03/19 06:50:32;;;;;;;;;;;;;;;20.18;45.94;101032.81;4943177;28;4345;-65
2023/03/19 06:52:59;;;;;;;;;;;;;;;20.17;46.07;101022.72;4938040;28;4543;-65
2023/03/19 06:55:26;;;;;;;;;;;;;;;20.17;46.33;101042.84;4941090;28;5390;-65
2023/03/19 06:57:52;;;;;;;;;;;;;;;20.18;46.23;101055.81;4940390;28;4271;-65
2023/03/19 07:00:19;;;;;;;;;;;;;;;20.16;46.48;101041.34;4940780;28;4169;-65
2023/03/19 07:02:46;;;;;;;;;;;;;;;20.16;45.99;101024.09;4937302;28;4148;-65
2023/03/19 07:05:12;;;;;;;;;;;;;;;20.15;46.09;101029.09;4941188;28;4235;-65
2023/03/19 07:07:39;;;;;;;;;;;;;;;20.17;46.14;101016.97;4940887;28;4145;-65
2023/03/19 07:10:05;;;;;;;;;;;;;;;20.19;46.37;101005.56;4940064;28;4258;-65
2023/03/19 07:12:31;;;;;;;;;;;;;;;20.18;45.98;100976.09;4940723;28;4536;-65
2023/03/19 07:14:58;;;;;;;;;;;;;;;20.18;46.01;100947.34;4943537;28;4217;-65
2023/03/19 07:17:25;;;;;;;;;;;;;;;20.20;46.17;100943.78;4941310;28;4351;-65
2023/03/19 07:19:51;;;;;;;;;;;;;;;20.20;46.23;100943.78;4942391;28;5182;-65
2023/03/19 07:22:17;;;;;;;;;;;;;;;20.20;46.24;100961.03;4938211;28;4235;-65
2023/03/19 07:24:44;;;;;;;;;;;;;;;20.20;46.10;100958.16;4940273;29;4174;-65
2023/03/19 07:27:10;;;;;;;;;;;;;;;20.20;45.84;100961.81;4942350;29;4031;-66
2023/03/19 07:29:37;;;;;;;;;;;;;;;20.20;46.07;100963.91;4936432;28;4321;-65
2023/03/19 07:32:03;;;;;;;;;;;;;;;20.19;45.96;100968.94;4935889;28;4168;-65
2023/03/19 07:34:29;;;;;;;;;;;;;;;20.18;45.89;100966.69;4942960;28;5287;-65
2023/03/19 07:36:56;;;;;;;;;;;;;;;20.18;45.97;100967.47;4936886;28;4347;-65
2023/03/19 07:39:22;;;;;;;;;;;;;;;20.20;46.18;100966.78;4942249;28;4267;-66
2023/03/19 07:41:49;;;;;;;;;;;;;;;20.20;46.40;100978.28;4940252;28;4145;-65
2023/03/19 07:44:15;;;;;;;;;;;;;;;20.20;46.08;100979.06;4937861;28;4567;-65
2023/03/19 07:46:42;;;;;;;;;;;;;;;20.21;45.99;100997.06;4939984;28;4115;-66
2023/03/19 07:49:08;;;;;;;;;;;;;;;20.21;45.82;101002.81;4938002;29;4084;-64
2023/03/19 07:51:35;;;;;;;;;;;;;;;20.29;46.07;100991.69;4941695;28;4123;-62
2023/03/19 07:54:01;;;;;;;;;;;;;;;19.60;47.39;101004.03;4935134;28;4040;-60
2023/03/19 07:56:28;;;;;;;;;;;;;;;19.87;46.91;101014.06;4942478;28;4207;-63
2023/03/19 07:58:55;;;;;;;;;;;;;;;20.00;46.69;101013.28;4946458;28;4117;-62
2023/03/19 08:01:21;;;;;;;;;;;;;;;20.14;46.98;101018.25;4944017;28;5332;-62
2023/03/19 08:03:47;;;;;;;;;;;;;;;20.24;47.05;101024.50;4943338;29;5003;-60
2023/03/19 08:06:14;;;;;;;;;;;;;;;20.18;47.62;101027.06;4941224;29;5388;-62
2023/03/19 08:08:40;;;;;;;;;;;;;;;20.16;47.60;101029.84;4937568;28;3939;-62
2023/03/19 08:11:07;;;;;;;;;;;;;;;20.17;47.52;101028.47;4940952;28;4089;-62
2023/03/19 08:13:33;;;;;;;;;;;;;;;20.15;47.59;101031.25;4939585;28;4100;-62
2023/03/19 08:16:00;;;;;;;;;;;;;;;20.16;47.31;101035.59;4959594;28;5170;-62
2023/03/19 08:18:26;;;;;;;;;;;;;;;20.16;47.12;101029.84;4954191;28;4206;-61
2023/03/19 08:20:52;;;;;;;;;;;;;;;20.22;46.80;101021.53;4954834;28;4269;-62
2023/03/19 08:23:19;;;;;;;;;;;;;;;20.24;46.94;101019.50;4958126;28;4215;-60
2023/03/19 08:25:46;;;;;;;;;;;;;;;20.25;47.04;101008.75;4953023;28;4183;-63
2023/03/19 08:28:12;;;;;;;;;;;;;;;20.24;46.90;101008.00;4943875;28;3983;-61
2023/03/19 08:30:38;;;;;;;;;;;;;;;20.29;47.06;101018.31;4948321;28;4092;-61
2023/03/19 08:33:05;;;;;;;;;;;;;;;20.30;47.00;101036.31;4941967;28;3989;-61
2023/03/19 08:35:31;;;;;;;;;;;;;;;20.32;46.74;101030.66;4947038;28;4027;-61
2023/03/19 08:37:58;;;;;;;;;;;;;;;20.36;46.99;101025.09;4949991;28;4154;-59
2023/03/19 08:40:24;;;;;;;;;;;;;;;20.43;47.01;101015.41;4948392;28;4138;-60
2023/03/19 08:42:51;;;;;;;;;;;;;;;20.41;47.16;101015.28;4948122;28;4057;-60
2023/03/19 08:45:18;;;;;;;;;;;;;;;20.40;47.79;101013.06;4930838;28;4041;-61
2023/03/19 08:47:44;;;;;;;;;;;;;;;20.37;47.20;101000.72;4950658;28;4068;-60
2023/03/19 08:50:11;;;;;;;;;;;;;;;20.39;47.42;101006.56;4950904;28;4171;-61
2023/03/19 08:52:37;;;;;;;;;;;;;;;20.36;47.49;101001.34;4945425;28;4537;-61
2023/03/19 08:55:04;;;;;;;;;;;;;;;20.35;47.50;101012.13;4944576;28;4144;-60
2023/03/19 08:57:31;;;;;;;;;;;;;;;20.38;47.59;101015.84;4946188;28;4152;-60
2023/03/19 08:59:57;;;;;;;;;;;;;;;20.39;47.86;101000.06;4945798;28;4214;-60
2023/03/19 09:02:23;;;;;;;;;;;;;;;20.39;47.82;100994.31;4949352;28;5145;-61
2023/03/19 09:04:50;;;;;;;;;;;;;;;20.38;47.58;100984.19;4941996;28;4210;-60
2023/03/19 09:07:16;;;;;;;;;;;;;;;20.42;47.66;100988.00;4946898;28;4237;-60
2023/03/19 09:09:42;;;;;;;;;;;;;;;20.43;47.74;100983.75;4945787;28;4259;-60
2023/03/19 09:12:10;;;;;;;;;;;;;;;20.43;47.68;100983.75;4944298;28;4218;-60
2023/03/19 09:14:36;;;;;;;;;;;;;;;20.42;48.05;100982.25;4945215;28;4229;-60
2023/03/19 09:17:02;;;;;;;;;;;;;;;20.40;47.87;100972.78;4930239;28;4154;-61
2023/03/19 09:19:29;;;;;;;;;;;;;;;20.41;47.79;100980.78;4946601;28;4249;-61
2023/03/19 09:21:55;;;;;;;;;;;;;;;20.40;47.80;100973.53;4943060;28;4188;-60
2023/03/19 09:24:21;;;;;;;;;;;;;;;20.40;47.98;100973.53;4941700;28;3960;-60
2023/03/19 09:26:48;;;;;;;;;;;;;;;20.40;47.65;100982.16;4942225;28;4199;-61
2023/03/19 09:29:15;;;;;;;;;;;;;;;20.42;47.64;100985.13;4942884;28;5624;-61
2023/03/19 09:31:41;;;;;;;;;;;;;;;20.44;47.63;100984.50;4941736;28;5220;-63
2023/03/19 09:34:08;;;;;;;;;;;;;;;20.43;47.67;100971.50;4945210;28;6512;-61
2023/03/19 09:36:35;;;;;;;;;;;;;;;20.45;47.67;100980.22;4945675;28;4219;-61
2023/03/19 09:39:01;;;;;;;;;;;;;;;20.45;47.48;100974.47;4946361;28;5202;-61
2023/03/19 09:41:31;;;;;;;;;;;;;;;20.45;47.74;100983.09;4942502;28;4139;-61
2023/03/19 09:44:01;;;;;;;;;;;;;;;20.45;47.71;100974.47;4929501;29;5226;-60
2023/03/19 09:46:29;;;;;;;;;;;;;;;20.45;47.30;100983.09;4944363;28;4109;-60
2023/03/19 09:49:01;;;;;;;;;;;;;;;20.44;47.45;100988.09;4942642;28;5378;-60
2023/03/19 09:51:29;;;;;;;;;;;;;;;20.46;47.70;100987.47;4944807;28;4941;-60
2023/03/19 09:53:57;;;;;;;;;;;;;;;20.43;47.91;100995.25;4931671;29;4128;-60
2023/03/19 09:56:23;;;;;;;;;;;;;;;20.47;47.78;100983.19;4921839;29;4680;-60
2023/03/19 09:58:49;;;;;;;;;;;;;;;20.45;47.71;100980.94;4927131;29;4067;-60
2023/03/19 10:01:20;;;;;;;;;;;;;;;20.46;47.68;100988.22;4937906;28;4147;-59
2023/03/19 10:03:53;;;;;;;;;;;;;;;20.45;47.68;100995.34;4919414;29;4217;-59
2023/03/19 10:06:28;;;;;;;;;;;;;;;20.45;47.65;100989.59;4945893;28;4390;-60
2023/03/19 10:09:00;;;;;;;;;;;;;;;20.45;47.74;100986.72;4931061;29;5324;-60
2023/03/19 10:11:29;;;;;;;;;;;;;;;20.47;47.62;100995.44;4921830;29;4201;-60
2023/03/19 10:14:15;;;;;;;;;;;;;;;20.46;47.47;100988.22;4942799;29;4174;-60
2023/03/19 10:16:42;;;;;;;;;;;;;;;20.46;47.55;100993.97;4944896;28;4183;-61
2023/03/19 10:19:09;;;;;;;;;;;;;;;20.46;47.60;100991.09;4937353;28;5499;-60
2023/03/19 10:21:38;;;;;;;;;;;;;;;20.45;47.47;100992.47;4915269;29;4474;-60
2023/03/19 10:24:16;;;;;;;;;;;;;;;20.45;47.60;100998.22;4916400;28;4208;-59
2023/03/19 10:26:43;;;;;;;;;;;;;;;20.45;47.55;101000.34;4938896;28;4136;-60
2023/03/19 10:29:10;;;;;;;;;;;;;;;20.44;47.53;101007.50;4916193;29;4223;-60
2023/03/19 10:31:45;;;;;;;;;;;;;;;20.44;47.63;101002.50;4938700;28;4189;-59
2023/03/19 10:34:17;;;;;;;;;;;;;;;20.45;47.51;100997.47;4918389;29;4128;-60
2023/03/19 10:36:44;;;;;;;;;;;;;;;20.44;47.84;100998.88;4937402;28;4210;-60
2023/03/19 10:39:13;;;;;;;;;;;;;;;20.44;47.57;100999.63;4938197;28;4214;-60
2023/03/19 10:41:41;;;;;;;;;;;;;;;20.43;47.84;101001.03;4914634;29;3984;-60
2023/03/19 10:44:21;;;;;;;;;;;;;;;20.43;48.00;101006.00;4918123;29;4116;-61
2023/03/19 10:46:47;;;;;;;;;;;;;;;20.30;48.07;101016.19;4919014;28;4209;-65
2023/03/19 10:49:13;;;;;;;;;;;;;;;20.25;48.12;101015.25;4938950;28;4134;-64
2023/03/19 10:51:44;;;;;;;;;;;;;;;20.34;47.87;101007.75;4942644;28;4048;-64
2023/03/19 10:54:20;;;;;;;;;;;;;;;20.42;48.18;101008.16;4936711;28;4021;-64
2023/03/19 10:56:47;;;;;;;;;;;;;;;20.32;48.60;101016.28;4939745;28;4164;-67
2023/03/19 10:59:20;;;;;;;;;;;;;;;20.21;48.48;101009.28;4916167;29;4129;-64
2023/03/19 11:01:46;;;;;;;;;;;;;;;20.27;48.42;101011.72;4918222;29;4132;-62
2023/03/19 11:04:16;;;;;;;;;;;;;;;20.14;48.56;101015.38;4936415;28;4143;-67
2023/03/19 11:06:46;;;;;;;;;;;;;;;20.08;48.62;101013.69;4940808;28;4164;-63
2023/03/19 11:09:15;;;;;;;;;;;;;;;20.11;48.48;101022.41;4935911;29;4202;-63
2023/03/19 11:11:42;;;;;;;;;;;;;;;20.10;48.40;101021.66;4915724;29;4598;-65
2023/03/19 11:14:23;;;;;;;;;;;;;;;20.02;48.77;101022.03;4940650;28;4193;-63
2023/03/19 11:16:52;;;;;;;;;;;;;;;20.03;48.61;101011.25;4915604;29;4368;-63
2023/03/19 11:19:20;;;;;;;;;;;;;;;20.06;48.53;101019.31;4941702;29;4122;-62
2023/03/19 11:22:13;;;;;;;;;;;;;;;20.07;48.52;101011.47;4943118;29;4155;-64
2023/03/19 11:24:39;;;;;;;;;;;;;;;20.08;48.45;101013.69;4935682;28;4147;-63
2023/03/19 11:27:06;;;;;;;;;;;;;;;20.03;48.43;101008.38;4942075;29;4158;-63
2023/03/19 11:29:37;;;;;;;;;;;;;;;20.00;48.57;101001.78;4941872;29;4086;-63
2023/03/19 11:32:09;;;;;;;;;;;;;;;20.02;48.49;101007.66;4922868;28;3940;-63
2023/03/19 11:34:53;;;;;;;;;;;;;;;20.05;48.38;101014.97;4938559;28;4112;-63
2023/03/19 11:37:29;;;;;;;;;;;;;;;20.07;48.24;101011.47;4946181;28;4067;-63
2023/03/19 11:39:58;;;;;;;;;;;;;;;20.09;48.23;101011.56;4943116;29;4067;-63
2023/03/19 11:42:27;;;;;;;;;;;;;;;20.09;48.20;101009.44;4924933;29;4423;-64
2023/03/19 11:44:59;;;;;;;;;;;;;;;20.15;47.97;101002.50;4942488;28;4073;-63
2023/03/19 11:47:31;;;;;;;;;;;;;;;20.15;48.01;101002.50;4944403;29;5015;-63
2023/03/19 11:50:00;;;;;;;;;;;;;;;20.12;48.16;101000.91;4945219;29;4491;-64
2023/03/19 11:56:01;;;;;;;;;;;;;;;20.27;47.79;101000.19;4936857;28;4163;-64
2023/03/19 11:58:46;;;;;;;;;;;;;;;20.26;47.96;101007.34;4945546;29;4158;-65
2023/03/19 12:01:27;;;;;;;;;;;;;;;20.32;47.91;101001.91;4935840;28;7744;-64
2023/03/19 12:04:06;;;;;;;;;;;;;;;20.36;48.09;101001.34;4946329;28;4306;-64
2023/03/19 12:06:33;;;;;;;;;;;;;;;20.38;48.11;101021.59;4931043;28;4096;-64
2023/03/19 12:09:07;;;;;;;;;;;;;;;20.37;48.11;101020.84;4926904;28;5436;-63
2023/03/19 12:11:33;;;;;;;;;;;;;;;20.36;48.29;101016.47;4942878;28;4184;-64
2023/03/19 12:14:08;;;;;;;;;;;;;;;20.39;48.18;101011.59;4942884;28;4323;-64
2023/03/19 12:16:38;;;;;;;;;;;;;;;20.38;48.26;101005.06;4944498;29;4265;-64
2023/03/19 12:19:30;;;;;;;;;;;;;;;20.40;48.23;101005.16;4925978;29;4083;-64
2023/03/19 12:22:06;;;;;;;;;;;;;;;20.37;48.61;101009.34;4924186;29;4288;-63
2023/03/19 12:24:36;;;;;;;;;;;;;;;20.41;48.34;101006.66;4944222;28;4151;-64
2023/03/19 12:27:21;;;;;;;;;;;;;;;20.40;48.44;100993.66;4941907;28;4166;-64
2023/03/19 12:30:00;;;;;;;;;;;;;;;20.40;48.64;100990.78;4940608;28;4605;-64
2023/03/19 12:32:31;;;;;;;;;;;;;;;20.40;48.56;100987.16;4922941;29;4160;-63
2023/03/19 12:34:58;;;;;;;;;;;;;;;20.38;48.72;100990.69;4919517;28;5097;-64
2023/03/19 12:37:29;;;;;;;;;;;;;;;20.38;48.85;100987.06;4920398;28;4141;-64
2023/03/19 12:40:05;;;;;;;;;;;;;;;20.39;48.65;100983.56;4917981;29;4277;-63
2023/03/19 12:42:35;;;;;;;;;;;;;;;20.41;48.78;100980.03;4920540;29;4028;-64
2023/03/19 12:45:03;;;;;;;;;;;;;;;20.42;48.81;100982.25;4938154;28;4024;-63
2023/03/19 12:47:34;;;;;;;;;;;;;;;20.40;48.66;100982.16;4939293;28;4203;-63
2023/03/19 12:50:04;;;;;;;;;;;;;;;20.41;48.74;100972.16;4921402;29;5401;-64
2023/03/19 12:52:31;;;;;;;;;;;;;;;20.43;48.68;100972.25;4943668;28;4178;-64
2023/03/19 12:55:15;;;;;;;;;;;;;;;20.46;48.59;100967.34;4933845;29;5543;-64
2023/03/19 12:57:51;;;;;;;;;;;;;;;20.45;48.47;100957.94;4924710;29;4195;-65
2023/03/19 13:00:27;;;;;;;;;;;;;;;20.43;48.71;100966.50;4919593;29;4155;-65
2023/03/19 13:02:56;;;;;;;;;;;;;;;20.42;48.58;100976.50;4930108;28;4147;-65